sensor_id;sensor_type;location;lat;lon;timestamp;P1;durP1;ratioP1;P2;durP2;ratioP2
70228;SDS011;57617;51.988;5.854;2022-08-19T00:02:11;12.55;;;7.05;;
70228;SDS011;57617;51.988;5.854;2022-08-19T00:04:36;8.63;;;6.60;;
70228;SDS011;57617;51.988;5.854;2022-08-19T00:07:02;10.77;;;7.70;;
70228;SDS011;57617;51.988;5.854;2022-08-19T00:09:31;10.18;;;6.75;;
70228;SDS011;57617;51.988;5.854;2022-08-19T00:11:57;9.02;;;7.00;;
70228;SDS011;57617;51.988;5.854;2022-08-19T00:14:24;11.82;;;8.13;;
70228;SDS011;57617;51.988;5.854;2022-08-19T00:16:50;11.50;;;8.27;;
70228;SDS011;57617;51.988;5.854;2022-08-19T00:19:19;12.77;;;7.88;;
70228;SDS011;57617;51.988;5.854;2022-08-19T00:21:45;11.35;;;8.13;;
70228;SDS011;57617;51.988;5.854;2022-08-19T00:24:12;12.43;;;8.45;;
70228;SDS011;57617;51.988;5.854;2022-08-19T00:26:39;12.38;;;8.43;;
70228;SDS011;57617;51.988;5.854;2022-08-19T00:29:06;8.38;;;6.93;;
70228;SDS011;57617;51.988;5.854;2022-08-19T00:31:32;8.43;;;6.90;;
70228;SDS011;57617;51.988;5.854;2022-08-19T00:33:58;8.68;;;7.03;;
70228;SDS011;57617;51.988;5.854;2022-08-19T00:36:24;10.25;;;7.72;;
70228;SDS011;57617;51.988;5.854;2022-08-19T00:38:49;11.25;;;8.77;;
70228;SDS011;57617;51.988;5.854;2022-08-19T00:41:17;10.48;;;8.32;;
70228;SDS011;57617;51.988;5.854;2022-08-19T00:44:09;11.73;;;8.90;;
70228;SDS011;57617;51.988;5.854;2022-08-19T00:46:34;13.95;;;9.68;;
70228;SDS011;57617;51.988;5.854;2022-08-19T00:49:02;13.70;;;9.95;;
70228;SDS011;57617;51.988;5.854;2022-08-19T00:51:34;13.35;;;10.40;;
70228;SDS011;57617;51.988;5.854;2022-08-19T00:54:00;14.07;;;10.23;;
70228;SDS011;57617;51.988;5.854;2022-08-19T00:56:27;12.68;;;10.40;;
70228;SDS011;57617;51.988;5.854;2022-08-19T00:58:53;13.88;;;9.85;;
70228;SDS011;57617;51.988;5.854;2022-08-19T01:01:21;13.07;;;10.02;;
70228;SDS011;57617;51.988;5.854;2022-08-19T01:03:46;13.98;;;10.57;;
70228;SDS011;57617;51.988;5.854;2022-08-19T01:06:12;12.55;;;9.13;;
70228;SDS011;57617;51.988;5.854;2022-08-19T01:08:37;11.02;;;8.80;;
70228;SDS011;57617;51.988;5.854;2022-08-19T01:11:02;15.07;;;10.10;;
70228;SDS011;57617;51.988;5.854;2022-08-19T01:13:30;13.77;;;9.82;;
70228;SDS011;57617;51.988;5.854;2022-08-19T01:16:00;12.15;;;9.98;;
70228;SDS011;57617;51.988;5.854;2022-08-19T01:18:29;13.23;;;9.73;;
70228;SDS011;57617;51.988;5.854;2022-08-19T01:20:58;13.32;;;10.57;;
70228;SDS011;57617;51.988;5.854;2022-08-19T01:23:27;15.75;;;10.43;;
70228;SDS011;57617;51.988;5.854;2022-08-19T01:26:07;14.25;;;10.40;;
70228;SDS011;57617;51.988;5.854;2022-08-19T01:28:35;13.30;;;10.02;;
70228;SDS011;57617;51.988;5.854;2022-08-19T01:31:02;15.20;;;9.50;;
70228;SDS011;57617;51.988;5.854;2022-08-19T01:33:27;13.25;;;9.90;;
70228;SDS011;57617;51.988;5.854;2022-08-19T01:36:02;14.32;;;9.95;;
70228;SDS011;57617;51.988;5.854;2022-08-19T01:38:34;15.55;;;10.60;;
70228;SDS011;57617;51.988;5.854;2022-08-19T01:41:02;15.00;;;9.77;;
70228;SDS011;57617;51.988;5.854;2022-08-19T01:43:27;16.70;;;10.15;;
70228;SDS011;57617;51.988;5.854;2022-08-19T01:45:53;11.90;;;9.38;;
70228;SDS011;57617;51.988;5.854;2022-08-19T01:48:18;15.52;;;9.88;;
70228;SDS011;57617;51.988;5.854;2022-08-19T01:50:44;13.88;;;10.00;;
70228;SDS011;57617;51.988;5.854;2022-08-19T01:53:10;17.02;;;10.90;;
70228;SDS011;57617;51.988;5.854;2022-08-19T01:55:38;14.98;;;11.30;;
70228;SDS011;57617;51.988;5.854;2022-08-19T01:58:05;16.80;;;10.77;;
70228;SDS011;57617;51.988;5.854;2022-08-19T02:00:35;17.05;;;11.90;;
70228;SDS011;57617;51.988;5.854;2022-08-19T02:03:00;15.98;;;12.10;;
70228;SDS011;57617;51.988;5.854;2022-08-19T02:05:26;15.30;;;10.63;;
70228;SDS011;57617;51.988;5.854;2022-08-19T02:07:54;14.30;;;10.35;;
70228;SDS011;57617;51.988;5.854;2022-08-19T02:10:20;14.82;;;10.38;;
70228;SDS011;57617;51.988;5.854;2022-08-19T02:12:47;15.95;;;11.25;;
70228;SDS011;57617;51.988;5.854;2022-08-19T02:15:14;17.55;;;13.02;;
70228;SDS011;57617;51.988;5.854;2022-08-19T02:17:40;19.98;;;13.10;;
70228;SDS011;57617;51.988;5.854;2022-08-19T02:20:06;18.25;;;13.50;;
70228;SDS011;57617;51.988;5.854;2022-08-19T02:22:33;18.63;;;13.85;;
70228;SDS011;57617;51.988;5.854;2022-08-19T02:24:58;22.65;;;13.63;;
70228;SDS011;57617;51.988;5.854;2022-08-19T02:27:24;18.42;;;12.82;;
70228;SDS011;57617;51.988;5.854;2022-08-19T02:29:50;20.40;;;12.93;;
70228;SDS011;57617;51.988;5.854;2022-08-19T02:32:16;18.35;;;13.18;;
70228;SDS011;57617;51.988;5.854;2022-08-19T02:34:44;22.00;;;14.02;;
70228;SDS011;57617;51.988;5.854;2022-08-19T02:37:10;22.83;;;13.35;;
70228;SDS011;57617;51.988;5.854;2022-08-19T02:39:55;19.20;;;12.43;;
70228;SDS011;57617;51.988;5.854;2022-08-19T02:42:21;17.83;;;12.35;;
70228;SDS011;57617;51.988;5.854;2022-08-19T02:44:46;17.30;;;12.75;;
70228;SDS011;57617;51.988;5.854;2022-08-19T02:47:12;20.30;;;13.20;;
70228;SDS011;57617;51.988;5.854;2022-08-19T02:49:39;18.55;;;13.27;;
70228;SDS011;57617;51.988;5.854;2022-08-19T02:52:04;20.13;;;13.45;;
70228;SDS011;57617;51.988;5.854;2022-08-19T02:54:30;20.45;;;13.57;;
70228;SDS011;57617;51.988;5.854;2022-08-19T02:56:55;26.35;;;13.98;;
70228;SDS011;57617;51.988;5.854;2022-08-19T02:59:20;21.50;;;13.50;;
70228;SDS011;57617;51.988;5.854;2022-08-19T03:01:46;21.42;;;14.85;;
70228;SDS011;57617;51.988;5.854;2022-08-19T03:04:12;19.50;;;13.70;;
70228;SDS011;57617;51.988;5.854;2022-08-19T03:06:40;23.90;;;14.65;;
70228;SDS011;57617;51.988;5.854;2022-08-19T03:09:07;20.92;;;14.02;;
70228;SDS011;57617;51.988;5.854;2022-08-19T03:11:32;21.10;;;14.23;;
70228;SDS011;57617;51.988;5.854;2022-08-19T03:13:58;22.73;;;14.57;;
70228;SDS011;57617;51.988;5.854;2022-08-19T03:16:26;21.77;;;13.48;;
70228;SDS011;57617;51.988;5.854;2022-08-19T03:18:53;19.75;;;13.80;;
70228;SDS011;57617;51.988;5.854;2022-08-19T03:21:21;17.85;;;13.48;;
70228;SDS011;57617;51.988;5.854;2022-08-19T03:23:48;18.05;;;12.60;;
70228;SDS011;57617;51.988;5.854;2022-08-19T03:26:14;18.42;;;13.52;;
70228;SDS011;57617;51.988;5.854;2022-08-19T03:28:44;21.80;;;14.50;;
70228;SDS011;57617;51.988;5.854;2022-08-19T03:31:15;20.70;;;13.93;;
70228;SDS011;57617;51.988;5.854;2022-08-19T03:33:42;19.88;;;13.57;;
70228;SDS011;57617;51.988;5.854;2022-08-19T03:36:09;24.33;;;14.00;;
70228;SDS011;57617;51.988;5.854;2022-08-19T03:38:38;20.95;;;15.13;;
70228;SDS011;57617;51.988;5.854;2022-08-19T03:41:06;21.83;;;14.50;;
70228;SDS011;57617;51.988;5.854;2022-08-19T03:43:35;22.08;;;14.00;;
70228;SDS011;57617;51.988;5.854;2022-08-19T03:46:02;21.83;;;14.20;;
70228;SDS011;57617;51.988;5.854;2022-08-19T03:48:29;19.88;;;13.43;;
70228;SDS011;57617;51.988;5.854;2022-08-19T03:50:56;21.52;;;13.45;;
70228;SDS011;57617;51.988;5.854;2022-08-19T03:53:23;22.75;;;13.60;;
70228;SDS011;57617;51.988;5.854;2022-08-19T03:55:50;21.27;;;13.60;;
70228;SDS011;57617;51.988;5.854;2022-08-19T03:58:16;21.23;;;13.77;;
70228;SDS011;57617;51.988;5.854;2022-08-19T04:00:42;22.08;;;14.40;;
70228;SDS011;57617;51.988;5.854;2022-08-19T04:03:08;20.58;;;13.38;;
70228;SDS011;57617;51.988;5.854;2022-08-19T04:05:33;20.73;;;14.05;;
70228;SDS011;57617;51.988;5.854;2022-08-19T04:07:59;22.70;;;14.02;;
70228;SDS011;57617;51.988;5.854;2022-08-19T04:10:24;24.40;;;15.90;;
70228;SDS011;57617;51.988;5.854;2022-08-19T04:12:50;24.58;;;16.35;;
70228;SDS011;57617;51.988;5.854;2022-08-19T04:15:15;26.13;;;15.80;;
70228;SDS011;57617;51.988;5.854;2022-08-19T04:17:40;23.00;;;15.82;;
70228;SDS011;57617;51.988;5.854;2022-08-19T04:20:06;22.33;;;15.85;;
70228;SDS011;57617;51.988;5.854;2022-08-19T04:22:31;23.50;;;15.30;;
70228;SDS011;57617;51.988;5.854;2022-08-19T04:24:56;21.83;;;15.02;;
70228;SDS011;57617;51.988;5.854;2022-08-19T04:27:22;24.65;;;16.92;;
70228;SDS011;57617;51.988;5.854;2022-08-19T04:29:47;23.85;;;16.48;;
70228;SDS011;57617;51.988;5.854;2022-08-19T04:32:12;23.77;;;16.05;;
70228;SDS011;57617;51.988;5.854;2022-08-19T04:34:40;24.75;;;15.93;;
70228;SDS011;57617;51.988;5.854;2022-08-19T04:37:07;23.00;;;14.68;;
70228;SDS011;57617;51.988;5.854;2022-08-19T04:39:37;22.00;;;14.73;;
70228;SDS011;57617;51.988;5.854;2022-08-19T04:42:22;23.02;;;15.30;;
70228;SDS011;57617;51.988;5.854;2022-08-19T04:45:06;24.42;;;15.43;;
70228;SDS011;57617;51.988;5.854;2022-08-19T04:47:35;20.30;;;14.13;;
70228;SDS011;57617;51.988;5.854;2022-08-19T04:50:04;22.75;;;14.50;;
70228;SDS011;57617;51.988;5.854;2022-08-19T04:52:31;23.20;;;15.40;;
70228;SDS011;57617;51.988;5.854;2022-08-19T04:54:56;27.65;;;16.35;;
70228;SDS011;57617;51.988;5.854;2022-08-19T04:57:23;25.13;;;16.20;;
70228;SDS011;57617;51.988;5.854;2022-08-19T04:59:49;23.33;;;15.65;;
70228;SDS011;57617;51.988;5.854;2022-08-19T05:02:19;25.75;;;15.23;;
70228;SDS011;57617;51.988;5.854;2022-08-19T05:04:45;25.92;;;17.58;;
70228;SDS011;57617;51.988;5.854;2022-08-19T05:07:10;25.63;;;17.27;;
70228;SDS011;57617;51.988;5.854;2022-08-19T05:09:35;24.95;;;16.23;;
70228;SDS011;57617;51.988;5.854;2022-08-19T05:12:01;24.10;;;16.33;;
70228;SDS011;57617;51.988;5.854;2022-08-19T05:14:26;27.00;;;16.55;;
70228;SDS011;57617;51.988;5.854;2022-08-19T05:16:51;24.67;;;16.45;;
70228;SDS011;57617;51.988;5.854;2022-08-19T05:19:17;27.55;;;17.58;;
70228;SDS011;57617;51.988;5.854;2022-08-19T05:22:00;26.17;;;17.30;;
70228;SDS011;57617;51.988;5.854;2022-08-19T05:24:44;25.25;;;17.13;;
70228;SDS011;57617;51.988;5.854;2022-08-19T05:27:10;24.70;;;16.42;;
70228;SDS011;57617;51.988;5.854;2022-08-19T05:29:35;23.83;;;16.05;;
70228;SDS011;57617;51.988;5.854;2022-08-19T05:32:01;23.35;;;15.85;;
70228;SDS011;57617;51.988;5.854;2022-08-19T05:34:29;23.30;;;16.30;;
70228;SDS011;57617;51.988;5.854;2022-08-19T05:36:56;26.00;;;15.85;;
70228;SDS011;57617;51.988;5.854;2022-08-19T05:39:25;24.00;;;16.55;;
70228;SDS011;57617;51.988;5.854;2022-08-19T05:41:56;24.13;;;16.65;;
70228;SDS011;57617;51.988;5.854;2022-08-19T05:44:28;29.85;;;17.48;;
70228;SDS011;57617;51.988;5.854;2022-08-19T05:46:58;26.25;;;16.90;;
70228;SDS011;57617;51.988;5.854;2022-08-19T05:49:28;28.02;;;17.23;;
70228;SDS011;57617;51.988;5.854;2022-08-19T05:51:56;26.38;;;17.05;;
70228;SDS011;57617;51.988;5.854;2022-08-19T05:54:21;28.77;;;17.80;;
70228;SDS011;57617;51.988;5.854;2022-08-19T05:56:48;26.25;;;17.13;;
70228;SDS011;57617;51.988;5.854;2022-08-19T05:59:15;31.60;;;18.73;;
70228;SDS011;57617;51.988;5.854;2022-08-19T06:01:42;30.30;;;19.23;;
70228;SDS011;57617;51.988;5.854;2022-08-19T06:04:09;31.02;;;19.33;;
70228;SDS011;57617;51.988;5.854;2022-08-19T06:06:36;37.13;;;20.92;;
70228;SDS011;57617;51.988;5.854;2022-08-19T06:09:02;37.75;;;22.35;;
70228;SDS011;57617;51.988;5.854;2022-08-19T06:11:33;37.70;;;22.67;;
70228;SDS011;57617;51.988;5.854;2022-08-19T06:14:09;43.22;;;25.50;;
70228;SDS011;57617;51.988;5.854;2022-08-19T06:16:37;43.92;;;24.60;;
70228;SDS011;57617;51.988;5.854;2022-08-19T06:19:05;40.58;;;23.95;;
70228;SDS011;57617;51.988;5.854;2022-08-19T06:21:33;39.83;;;23.75;;
70228;SDS011;57617;51.988;5.854;2022-08-19T06:24:02;39.88;;;24.15;;
70228;SDS011;57617;51.988;5.854;2022-08-19T06:26:28;36.90;;;23.75;;
70228;SDS011;57617;51.988;5.854;2022-08-19T06:28:54;38.85;;;23.13;;
70228;SDS011;57617;51.988;5.854;2022-08-19T06:31:21;43.42;;;24.75;;
70228;SDS011;57617;51.988;5.854;2022-08-19T06:33:51;38.90;;;24.77;;
70228;SDS011;57617;51.988;5.854;2022-08-19T06:36:17;39.63;;;24.33;;
70228;SDS011;57617;51.988;5.854;2022-08-19T06:38:44;43.22;;;25.33;;
70228;SDS011;57617;51.988;5.854;2022-08-19T06:41:09;41.78;;;24.60;;
70228;SDS011;57617;51.988;5.854;2022-08-19T06:43:35;39.80;;;24.27;;
70228;SDS011;57617;51.988;5.854;2022-08-19T06:46:01;44.28;;;25.27;;
70228;SDS011;57617;51.988;5.854;2022-08-19T06:48:28;54.35;;;28.05;;
70228;SDS011;57617;51.988;5.854;2022-08-19T06:50:53;57.58;;;28.95;;
70228;SDS011;57617;51.988;5.854;2022-08-19T06:53:19;80.85;;;35.30;;
70228;SDS011;57617;51.988;5.854;2022-08-19T06:55:44;77.53;;;33.83;;
70228;SDS011;57617;51.988;5.854;2022-08-19T06:58:10;82.68;;;34.08;;
70228;SDS011;57617;51.988;5.854;2022-08-19T07:00:35;96.18;;;38.78;;
70228;SDS011;57617;51.988;5.854;2022-08-19T07:03:01;92.57;;;37.50;;
70228;SDS011;57617;51.988;5.854;2022-08-19T07:05:27;89.57;;;38.60;;
70228;SDS011;57617;51.988;5.854;2022-08-19T07:07:52;95.95;;;39.45;;
70228;SDS011;57617;51.988;5.854;2022-08-19T07:10:18;89.00;;;39.33;;
70228;SDS011;57617;51.988;5.854;2022-08-19T07:12:44;90.15;;;38.58;;
70228;SDS011;57617;51.988;5.854;2022-08-19T07:15:09;92.65;;;38.42;;
70228;SDS011;57617;51.988;5.854;2022-08-19T07:17:35;97.97;;;40.80;;
70228;SDS011;57617;51.988;5.854;2022-08-19T07:20:03;101.03;;;42.83;;
70228;SDS011;57617;51.988;5.854;2022-08-19T07:22:32;106.53;;;45.00;;
70228;SDS011;57617;51.988;5.854;2022-08-19T07:25:05;102.82;;;44.13;;
70228;SDS011;57617;51.988;5.854;2022-08-19T07:27:31;102.43;;;45.65;;
70228;SDS011;57617;51.988;5.854;2022-08-19T07:29:57;106.82;;;46.65;;
70228;SDS011;57617;51.988;5.854;2022-08-19T07:32:22;109.60;;;46.28;;
70228;SDS011;57617;51.988;5.854;2022-08-19T07:34:50;104.60;;;45.83;;
70228;SDS011;57617;51.988;5.854;2022-08-19T07:37:16;94.78;;;43.03;;
70228;SDS011;57617;51.988;5.854;2022-08-19T07:39:41;99.50;;;45.42;;
70228;SDS011;57617;51.988;5.854;2022-08-19T07:42:08;105.35;;;47.15;;
70228;SDS011;57617;51.988;5.854;2022-08-19T07:44:34;105.82;;;48.08;;
70228;SDS011;57617;51.988;5.854;2022-08-19T07:47:00;108.28;;;48.88;;
70228;SDS011;57617;51.988;5.854;2022-08-19T07:49:27;112.55;;;50.33;;
70228;SDS011;57617;51.988;5.854;2022-08-19T07:51:53;112.03;;;51.00;;
70228;SDS011;57617;51.988;5.854;2022-08-19T07:54:22;110.28;;;50.28;;
70228;SDS011;57617;51.988;5.854;2022-08-19T07:56:48;107.65;;;51.47;;
70228;SDS011;57617;51.988;5.854;2022-08-19T07:59:15;105.18;;;50.78;;
70228;SDS011;57617;51.988;5.854;2022-08-19T08:01:42;104.95;;;51.28;;
70228;SDS011;57617;51.988;5.854;2022-08-19T08:04:09;102.07;;;50.83;;
70228;SDS011;57617;51.988;5.854;2022-08-19T08:06:53;105.13;;;51.25;;
70228;SDS011;57617;51.988;5.854;2022-08-19T08:09:38;97.55;;;49.95;;
70228;SDS011;57617;51.988;5.854;2022-08-19T08:12:06;100.35;;;52.28;;
70228;SDS011;57617;51.988;5.854;2022-08-19T08:14:42;98.95;;;50.90;;
70228;SDS011;57617;51.988;5.854;2022-08-19T08:17:13;97.65;;;49.85;;
70228;SDS011;57617;51.988;5.854;2022-08-19T08:19:40;99.05;;;49.85;;
70228;SDS011;57617;51.988;5.854;2022-08-19T08:22:07;99.05;;;47.60;;
70228;SDS011;57617;51.988;5.854;2022-08-19T08:24:53;88.45;;;46.70;;
70228;SDS011;57617;51.988;5.854;2022-08-19T08:27:19;90.25;;;48.03;;
70228;SDS011;57617;51.988;5.854;2022-08-19T08:29:44;87.13;;;46.25;;
70228;SDS011;57617;51.988;5.854;2022-08-19T08:32:10;80.22;;;43.67;;
70228;SDS011;57617;51.988;5.854;2022-08-19T08:34:35;81.05;;;43.53;;
70228;SDS011;57617;51.988;5.854;2022-08-19T08:37:01;86.30;;;43.97;;
70228;SDS011;57617;51.988;5.854;2022-08-19T08:39:28;87.32;;;45.40;;
70228;SDS011;57617;51.988;5.854;2022-08-19T08:41:58;86.45;;;45.92;;
70228;SDS011;57617;51.988;5.854;2022-08-19T08:45:17;87.68;;;43.05;;
70228;SDS011;57617;51.988;5.854;2022-08-19T08:47:26;77.88;;;40.30;;
70228;SDS011;57617;51.988;5.854;2022-08-19T08:49:58;72.35;;;36.95;;
70228;SDS011;57617;51.988;5.854;2022-08-19T08:52:28;66.90;;;35.22;;
70228;SDS011;57617;51.988;5.854;2022-08-19T08:54:57;68.50;;;36.08;;
70228;SDS011;57617;51.988;5.854;2022-08-19T08:57:32;65.60;;;34.53;;
70228;SDS011;57617;51.988;5.854;2022-08-19T09:00:06;60.45;;;33.00;;
70228;SDS011;57617;51.988;5.854;2022-08-19T09:02:35;62.35;;;32.17;;
70228;SDS011;57617;51.988;5.854;2022-08-19T09:05:00;60.72;;;33.53;;
70228;SDS011;57617;51.988;5.854;2022-08-19T09:07:38;62.45;;;32.28;;
70228;SDS011;57617;51.988;5.854;2022-08-19T09:10:21;64.75;;;34.60;;
70228;SDS011;57617;51.988;5.854;2022-08-19T09:13:12;65.25;;;33.58;;
70228;SDS011;57617;51.988;5.854;2022-08-19T09:15:47;64.93;;;34.00;;
70228;SDS011;57617;51.988;5.854;2022-08-19T09:18:17;61.92;;;32.72;;
70228;SDS011;57617;51.988;5.854;2022-08-19T09:20:43;56.03;;;31.55;;
70228;SDS011;57617;51.988;5.854;2022-08-19T09:23:09;59.25;;;31.10;;
70228;SDS011;57617;51.988;5.854;2022-08-19T09:25:36;56.88;;;31.50;;
70228;SDS011;57617;51.988;5.854;2022-08-19T09:28:01;53.72;;;31.85;;
70228;SDS011;57617;51.988;5.854;2022-08-19T09:30:30;56.65;;;30.85;;
70228;SDS011;57617;51.988;5.854;2022-08-19T09:32:57;55.42;;;30.33;;
70228;SDS011;57617;51.988;5.854;2022-08-19T09:35:24;56.80;;;32.70;;
70228;SDS011;57617;51.988;5.854;2022-08-19T09:37:51;58.55;;;32.28;;
70228;SDS011;57617;51.988;5.854;2022-08-19T09:40:17;51.42;;;30.67;;
70228;SDS011;57617;51.988;5.854;2022-08-19T09:42:43;57.28;;;29.50;;
70228;SDS011;57617;51.988;5.854;2022-08-19T09:45:11;52.22;;;28.75;;
70228;SDS011;57617;51.988;5.854;2022-08-19T09:47:37;43.22;;;26.20;;
70228;SDS011;57617;51.988;5.854;2022-08-19T09:50:04;47.30;;;27.73;;
70228;SDS011;57617;51.988;5.854;2022-08-19T09:52:31;47.70;;;27.85;;
70228;SDS011;57617;51.988;5.854;2022-08-19T09:54:57;51.45;;;28.70;;
70228;SDS011;57617;51.988;5.854;2022-08-19T09:57:22;46.53;;;27.98;;
70228;SDS011;57617;51.988;5.854;2022-08-19T09:59:47;50.30;;;27.25;;
70228;SDS011;57617;51.988;5.854;2022-08-19T10:02:13;49.88;;;28.42;;
70228;SDS011;57617;51.988;5.854;2022-08-19T10:04:38;53.15;;;26.85;;
70228;SDS011;57617;51.988;5.854;2022-08-19T10:07:22;52.72;;;28.58;;
70228;SDS011;57617;51.988;5.854;2022-08-19T10:09:47;51.00;;;26.95;;
70228;SDS011;57617;51.988;5.854;2022-08-19T10:12:12;44.95;;;26.15;;
70228;SDS011;57617;51.988;5.854;2022-08-19T10:14:39;40.38;;;23.52;;
70228;SDS011;57617;51.988;5.854;2022-08-19T10:17:04;38.17;;;23.27;;
70228;SDS011;57617;51.988;5.854;2022-08-19T10:19:29;35.80;;;22.55;;
70228;SDS011;57617;51.988;5.854;2022-08-19T10:22:02;42.58;;;24.27;;
70228;SDS011;57617;51.988;5.854;2022-08-19T10:24:30;37.17;;;22.20;;
70228;SDS011;57617;51.988;5.854;2022-08-19T10:26:56;37.95;;;22.58;;
70228;SDS011;57617;51.988;5.854;2022-08-19T10:29:22;41.33;;;22.90;;
70228;SDS011;57617;51.988;5.854;2022-08-19T10:31:47;37.10;;;22.35;;
70228;SDS011;57617;51.988;5.854;2022-08-19T10:34:13;42.95;;;22.85;;
70228;SDS011;57617;51.988;5.854;2022-08-19T10:36:38;41.72;;;23.80;;
70228;SDS011;57617;51.988;5.854;2022-08-19T10:39:05;45.25;;;23.98;;
70228;SDS011;57617;51.988;5.854;2022-08-19T10:41:34;42.00;;;23.70;;
70228;SDS011;57617;51.988;5.854;2022-08-19T10:44:06;42.38;;;23.05;;
70228;SDS011;57617;51.988;5.854;2022-08-19T10:46:34;37.17;;;21.73;;
70228;SDS011;57617;51.988;5.854;2022-08-19T10:49:02;36.15;;;21.55;;
70228;SDS011;57617;51.988;5.854;2022-08-19T10:51:29;37.15;;;22.38;;
70228;SDS011;57617;51.988;5.854;2022-08-19T10:54:15;34.90;;;21.63;;
70228;SDS011;57617;51.988;5.854;2022-08-19T10:56:41;39.65;;;21.98;;
70228;SDS011;57617;51.988;5.854;2022-08-19T11:01:48;33.25;;;20.92;;
70228;SDS011;57617;51.988;5.854;2022-08-19T11:04:14;34.55;;;20.35;;
70228;SDS011;57617;51.988;5.854;2022-08-19T11:06:42;28.10;;;18.02;;
70228;SDS011;57617;51.988;5.854;2022-08-19T11:09:11;37.20;;;22.25;;
70228;SDS011;57617;51.988;5.854;2022-08-19T11:11:37;34.28;;;20.75;;
70228;SDS011;57617;51.988;5.854;2022-08-19T11:14:09;32.22;;;18.98;;
70228;SDS011;57617;51.988;5.854;2022-08-19T11:16:36;32.67;;;19.95;;
70228;SDS011;57617;51.988;5.854;2022-08-19T11:19:04;34.00;;;20.00;;
70228;SDS011;57617;51.988;5.854;2022-08-19T11:21:33;30.20;;;18.98;;
70228;SDS011;57617;51.988;5.854;2022-08-19T11:24:01;36.58;;;20.15;;
70228;SDS011;57617;51.988;5.854;2022-08-19T11:26:29;36.55;;;19.77;;
70228;SDS011;57617;51.988;5.854;2022-08-19T11:28:56;28.05;;;18.95;;
70228;SDS011;57617;51.988;5.854;2022-08-19T11:31:24;29.77;;;17.88;;
70228;SDS011;57617;51.988;5.854;2022-08-19T11:33:51;30.67;;;18.95;;
70228;SDS011;57617;51.988;5.854;2022-08-19T11:36:17;30.77;;;18.88;;
70228;SDS011;57617;51.988;5.854;2022-08-19T11:38:45;31.02;;;18.83;;
70228;SDS011;57617;51.988;5.854;2022-08-19T11:41:12;29.48;;;18.38;;
70228;SDS011;57617;51.988;5.854;2022-08-19T11:43:37;26.50;;;18.23;;
70228;SDS011;57617;51.988;5.854;2022-08-19T11:46:05;30.50;;;18.25;;
70228;SDS011;57617;51.988;5.854;2022-08-19T11:48:32;27.90;;;17.27;;
70228;SDS011;57617;51.988;5.854;2022-08-19T11:50:57;29.85;;;18.15;;
70228;SDS011;57617;51.988;5.854;2022-08-19T11:53:23;28.45;;;18.33;;
70228;SDS011;57617;51.988;5.854;2022-08-19T11:55:49;28.75;;;18.90;;
70228;SDS011;57617;51.988;5.854;2022-08-19T11:58:16;23.80;;;16.20;;
70228;SDS011;57617;51.988;5.854;2022-08-19T12:00:42;26.17;;;16.73;;
70228;SDS011;57617;51.988;5.854;2022-08-19T12:03:10;32.78;;;18.77;;
70228;SDS011;57617;51.988;5.854;2022-08-19T12:05:37;31.88;;;20.73;;
70228;SDS011;57617;51.988;5.854;2022-08-19T12:08:03;30.60;;;18.15;;
70228;SDS011;57617;51.988;5.854;2022-08-19T12:10:28;25.92;;;17.30;;
70228;SDS011;57617;51.988;5.854;2022-08-19T12:12:53;30.90;;;17.88;;
70228;SDS011;57617;51.988;5.854;2022-08-19T12:15:19;24.63;;;17.15;;
70228;SDS011;57617;51.988;5.854;2022-08-19T12:17:44;27.58;;;19.35;;
70228;SDS011;57617;51.988;5.854;2022-08-19T12:20:10;32.47;;;19.60;;
70228;SDS011;57617;51.988;5.854;2022-08-19T12:22:38;27.60;;;19.27;;
70228;SDS011;57617;51.988;5.854;2022-08-19T12:25:06;30.38;;;21.80;;
70228;SDS011;57617;51.988;5.854;2022-08-19T12:27:32;35.47;;;21.85;;
70228;SDS011;57617;51.988;5.854;2022-08-19T12:29:58;30.10;;;19.38;;
70228;SDS011;57617;51.988;5.854;2022-08-19T12:32:25;26.30;;;18.52;;
70228;SDS011;57617;51.988;5.854;2022-08-19T12:34:51;31.65;;;20.08;;
70228;SDS011;57617;51.988;5.854;2022-08-19T12:37:16;34.28;;;22.77;;
70228;SDS011;57617;51.988;5.854;2022-08-19T12:39:42;37.65;;;24.42;;
70228;SDS011;57617;51.988;5.854;2022-08-19T12:42:09;31.95;;;21.63;;
70228;SDS011;57617;51.988;5.854;2022-08-19T12:44:36;32.05;;;21.95;;
70228;SDS011;57617;51.988;5.854;2022-08-19T12:47:04;31.33;;;21.15;;
70228;SDS011;57617;51.988;5.854;2022-08-19T12:49:30;33.03;;;22.60;;
70228;SDS011;57617;51.988;5.854;2022-08-19T12:51:58;32.83;;;21.77;;
70228;SDS011;57617;51.988;5.854;2022-08-19T12:54:23;34.00;;;22.85;;
70228;SDS011;57617;51.988;5.854;2022-08-19T12:56:49;31.35;;;21.77;;
70228;SDS011;57617;51.988;5.854;2022-08-19T12:59:14;35.50;;;24.42;;
70228;SDS011;57617;51.988;5.854;2022-08-19T13:01:42;30.50;;;21.05;;
70228;SDS011;57617;51.988;5.854;2022-08-19T13:04:08;40.60;;;25.83;;
70228;SDS011;57617;51.988;5.854;2022-08-19T13:06:33;34.15;;;21.48;;
70228;SDS011;57617;51.988;5.854;2022-08-19T13:08:59;30.77;;;22.25;;
70228;SDS011;57617;51.988;5.854;2022-08-19T13:11:24;26.13;;;19.38;;
70228;SDS011;57617;51.988;5.854;2022-08-19T13:13:50;28.08;;;18.95;;
70228;SDS011;57617;51.988;5.854;2022-08-19T13:16:16;27.95;;;19.13;;
70228;SDS011;57617;51.988;5.854;2022-08-19T13:18:44;31.83;;;21.00;;
70228;SDS011;57617;51.988;5.854;2022-08-19T13:21:12;27.40;;;19.83;;
70228;SDS011;57617;51.988;5.854;2022-08-19T13:23:38;27.60;;;18.83;;
70228;SDS011;57617;51.988;5.854;2022-08-19T13:26:04;26.98;;;18.58;;
70228;SDS011;57617;51.988;5.854;2022-08-19T13:28:31;25.63;;;17.35;;
70228;SDS011;57617;51.988;5.854;2022-08-19T13:31:16;25.33;;;17.85;;
70228;SDS011;57617;51.988;5.854;2022-08-19T13:34:02;25.13;;;16.40;;
70228;SDS011;57617;51.988;5.854;2022-08-19T13:36:28;23.40;;;17.98;;
70228;SDS011;57617;51.988;5.854;2022-08-19T13:38:53;28.77;;;18.27;;
70228;SDS011;57617;51.988;5.854;2022-08-19T13:41:19;29.70;;;20.60;;
70228;SDS011;57617;51.988;5.854;2022-08-19T13:43:44;31.00;;;22.67;;
70228;SDS011;57617;51.988;5.854;2022-08-19T13:46:10;27.67;;;18.77;;
70228;SDS011;57617;51.988;5.854;2022-08-19T13:48:38;28.08;;;20.08;;
70228;SDS011;57617;51.988;5.854;2022-08-19T13:51:05;26.60;;;19.10;;
70228;SDS011;57617;51.988;5.854;2022-08-19T13:53:34;23.42;;;17.45;;
70228;SDS011;57617;51.988;5.854;2022-08-19T13:56:06;31.10;;;21.70;;
70228;SDS011;57617;51.988;5.854;2022-08-19T13:58:38;30.05;;;22.70;;
70228;SDS011;57617;51.988;5.854;2022-08-19T14:01:04;32.60;;;22.05;;
70228;SDS011;57617;51.988;5.854;2022-08-19T14:03:31;35.55;;;24.58;;
70228;SDS011;57617;51.988;5.854;2022-08-19T14:05:57;30.58;;;22.08;;
70228;SDS011;57617;51.988;5.854;2022-08-19T14:08:24;28.92;;;20.45;;
70228;SDS011;57617;51.988;5.854;2022-08-19T14:10:50;29.40;;;19.58;;
70228;SDS011;57617;51.988;5.854;2022-08-19T14:13:17;34.72;;;23.02;;
70228;SDS011;57617;51.988;5.854;2022-08-19T14:15:44;32.20;;;22.65;;
70228;SDS011;57617;51.988;5.854;2022-08-19T14:18:10;34.75;;;23.27;;
70228;SDS011;57617;51.988;5.854;2022-08-19T14:20:36;33.25;;;21.02;;
70228;SDS011;57617;51.988;5.854;2022-08-19T14:23:02;31.95;;;20.45;;
70228;SDS011;57617;51.988;5.854;2022-08-19T14:25:30;30.88;;;20.50;;
70228;SDS011;57617;51.988;5.854;2022-08-19T14:27:55;29.52;;;20.50;;